sensor_id;sensor_type;location;lat;lon;timestamp;P1;durP1;ratioP1;P2;durP2;ratioP2
3287;SDS011;3260;52.438;13.502;2022-07-04T04:00:42;5.40;;;0.90;;
3287;SDS011;3260;52.438;13.502;2022-07-04T04:03:12;5.33;;;0.90;;
3287;SDS011;3260;52.438;13.502;2022-07-04T04:05:54;5.30;;;0.90;;
3287;SDS011;3260;52.438;13.502;2022-07-04T04:08:22;5.33;;;0.90;;
3287;SDS011;3260;52.438;13.502;2022-07-04T04:10:51;5.30;;;0.90;;
3287;SDS011;3260;52.438;13.502;2022-07-04T04:13:19;5.60;;;1.10;;
3287;SDS011;3260;52.438;13.502;2022-07-04T04:15:48;7.80;;;2.73;;
3287;SDS011;3260;52.438;13.502;2022-07-04T04:18:16;5.30;;;0.90;;
3287;SDS011;3260;52.438;13.502;2022-07-04T04:20:44;5.23;;;0.90;;
3287;SDS011;3260;52.438;13.502;2022-07-04T04:23:12;5.90;;;1.23;;
3287;SDS011;3260;52.438;13.502;2022-07-04T04:25:40;5.33;;;0.90;;
3287;SDS011;3260;52.438;13.502;2022-07-04T04:28:08;5.23;;;0.90;;
3287;SDS011;3260;52.438;13.502;2022-07-04T04:30:37;5.33;;;0.90;;
3287;SDS011;3260;52.438;13.502;2022-07-04T04:33:06;5.50;;;1.13;;
3287;SDS011;3260;52.438;13.502;2022-07-04T04:35:34;5.30;;;0.90;;
3287;SDS011;3260;52.438;13.502;2022-07-04T04:38:02;5.30;;;0.90;;
3287;SDS011;3260;52.438;13.502;2022-07-04T04:40:31;5.27;;;0.90;;
3287;SDS011;3260;52.438;13.502;2022-07-04T04:42:59;5.30;;;0.90;;
3287;SDS011;3260;52.438;13.502;2022-07-04T04:45:27;5.30;;;0.90;;
3287;SDS011;3260;52.438;13.502;2022-07-04T04:47:55;5.30;;;0.90;;
3287;SDS011;3260;52.438;13.502;2022-07-04T04:50:25;5.33;;;1.00;;
3287;SDS011;3260;52.438;13.502;2022-07-04T04:52:53;5.40;;;0.90;;
3287;SDS011;3260;52.438;13.502;2022-07-04T04:55:21;5.57;;;1.23;;
3287;SDS011;3260;52.438;13.502;2022-07-04T04:57:49;7.00;;;2.80;;
3287;SDS011;3260;52.438;13.502;2022-07-04T05:00:17;5.60;;;1.33;;
3287;SDS011;3260;52.438;13.502;2022-07-04T05:02:46;5.40;;;1.00;;
3287;SDS011;3260;52.438;13.502;2022-07-04T05:05:14;5.37;;;0.90;;
3287;SDS011;3260;52.438;13.502;2022-07-04T05:07:44;6.23;;;1.40;;
3287;SDS011;3260;52.438;13.502;2022-07-04T05:10:12;5.30;;;0.90;;
3287;SDS011;3260;52.438;13.502;2022-07-04T05:12:41;5.30;;;0.90;;
3287;SDS011;3260;52.438;13.502;2022-07-04T05:15:10;5.30;;;0.90;;
3287;SDS011;3260;52.438;13.502;2022-07-04T05:17:38;5.33;;;1.00;;
3287;SDS011;3260;52.438;13.502;2022-07-04T05:20:07;5.30;;;0.90;;
3287;SDS011;3260;52.438;13.502;2022-07-04T05:22:36;5.40;;;1.00;;
3287;SDS011;3260;52.438;13.502;2022-07-04T05:25:06;5.57;;;1.10;;
3287;SDS011;3260;52.438;13.502;2022-07-04T05:27:35;5.33;;;0.90;;
3287;SDS011;3260;52.438;13.502;2022-07-04T05:30:03;5.50;;;1.20;;
3287;SDS011;3260;52.438;13.502;2022-07-04T05:32:32;5.33;;;0.90;;
3287;SDS011;3260;52.438;13.502;2022-07-04T05:35:01;5.37;;;0.97;;
3287;SDS011;3260;52.438;13.502;2022-07-04T05:37:29;7.03;;;2.20;;
3287;SDS011;3260;52.438;13.502;2022-07-04T05:39:57;5.40;;;0.97;;
3287;SDS011;3260;52.438;13.502;2022-07-04T05:42:27;5.33;;;1.00;;
3287;SDS011;3260;52.438;13.502;2022-07-04T05:44:55;6.00;;;1.20;;
3287;SDS011;3260;52.438;13.502;2022-07-04T05:47:23;5.33;;;0.90;;
3287;SDS011;3260;52.438;13.502;2022-07-04T05:49:51;5.77;;;1.23;;
3287;SDS011;3260;52.438;13.502;2022-07-04T05:52:19;5.40;;;1.00;;
3287;SDS011;3260;52.438;13.502;2022-07-04T05:54:47;5.33;;;1.10;;
3287;SDS011;3260;52.438;13.502;2022-07-04T05:57:15;6.80;;;1.20;;
3287;SDS011;3260;52.438;13.502;2022-07-04T05:59:45;5.30;;;0.90;;
3287;SDS011;3260;52.438;13.502;2022-07-04T06:02:13;7.40;;;1.20;;
3287;SDS011;3260;52.438;13.502;2022-07-04T06:04:41;5.30;;;0.90;;
3287;SDS011;3260;52.438;13.502;2022-07-04T06:07:11;5.27;;;0.90;;
3287;SDS011;3260;52.438;13.502;2022-07-04T06:09:39;6.07;;;1.00;;
3287;SDS011;3260;52.438;13.502;2022-07-04T06:12:07;5.90;;;1.33;;
3287;SDS011;3260;52.438;13.502;2022-07-04T06:14:36;5.40;;;1.00;;
3287;SDS011;3260;52.438;13.502;2022-07-04T06:17:05;6.33;;;1.50;;
3287;SDS011;3260;52.438;13.502;2022-07-04T06:19:34;5.43;;;1.00;;
3287;SDS011;3260;52.438;13.502;2022-07-04T06:22:02;5.27;;;0.90;;
3287;SDS011;3260;52.438;13.502;2022-07-04T06:24:31;5.37;;;0.97;;
3287;SDS011;3260;52.438;13.502;2022-07-04T06:26:59;5.30;;;0.93;;
3287;SDS011;3260;52.438;13.502;2022-07-04T06:29:29;5.37;;;1.00;;
3287;SDS011;3260;52.438;13.502;2022-07-04T06:31:57;5.27;;;0.90;;
3287;SDS011;3260;52.438;13.502;2022-07-04T06:34:27;5.27;;;0.90;;
3287;SDS011;3260;52.438;13.502;2022-07-04T06:37:13;5.50;;;1.10;;
3287;SDS011;3260;52.438;13.502;2022-07-04T06:39:41;7.03;;;1.57;;
3287;SDS011;3260;52.438;13.502;2022-07-04T06:42:09;5.30;;;0.90;;
3287;SDS011;3260;52.438;13.502;2022-07-04T06:44:37;5.30;;;0.90;;
3287;SDS011;3260;52.438;13.502;2022-07-04T06:47:05;5.30;;;0.80;;
3287;SDS011;3260;52.438;13.502;2022-07-04T06:49:35;5.40;;;1.00;;
3287;SDS011;3260;52.438;13.502;2022-07-04T06:52:04;5.30;;;0.80;;
3287;SDS011;3260;52.438;13.502;2022-07-04T06:54:32;5.30;;;0.87;;
3287;SDS011;3260;52.438;13.502;2022-07-04T06:57:00;5.40;;;0.90;;
3287;SDS011;3260;52.438;13.502;2022-07-04T06:59:49;6.63;;;1.97;;
3287;SDS011;3260;52.438;13.502;2022-07-04T07:02:17;5.30;;;1.00;;
3287;SDS011;3260;52.438;13.502;2022-07-04T07:04:47;5.30;;;0.90;;
3287;SDS011;3260;52.438;13.502;2022-07-04T07:07:15;5.27;;;0.90;;
3287;SDS011;3260;52.438;13.502;2022-07-04T07:09:43;5.30;;;0.90;;
3287;SDS011;3260;52.438;13.502;2022-07-04T07:12:12;5.30;;;0.90;;
3287;SDS011;3260;52.438;13.502;2022-07-04T07:14:40;5.30;;;0.90;;
3287;SDS011;3260;52.438;13.502;2022-07-04T07:17:08;5.30;;;0.90;;
3287;SDS011;3260;52.438;13.502;2022-07-04T07:19:36;5.30;;;0.90;;
3287;SDS011;3260;52.438;13.502;2022-07-04T07:22:07;5.40;;;0.90;;
3287;SDS011;3260;52.438;13.502;2022-07-04T07:24:35;5.30;;;0.90;;
3287;SDS011;3260;52.438;13.502;2022-07-04T07:27:03;5.30;;;0.87;;
3287;SDS011;3260;52.438;13.502;2022-07-04T07:29:32;5.30;;;0.90;;
3287;SDS011;3260;52.438;13.502;2022-07-04T07:32:00;5.37;;;0.90;;
3287;SDS011;3260;52.438;13.502;2022-07-04T07:34:29;5.50;;;1.00;;
3287;SDS011;3260;52.438;13.502;2022-07-04T07:36:58;5.40;;;1.00;;
3287;SDS011;3260;52.438;13.502;2022-07-04T07:39:27;5.40;;;0.90;;
3287;SDS011;3260;52.438;13.502;2022-07-04T07:41:56;5.30;;;0.90;;
3287;SDS011;3260;52.438;13.502;2022-07-04T07:44:24;5.30;;;0.90;;
3287;SDS011;3260;52.438;13.502;2022-07-04T07:46:52;5.90;;;1.30;;
3287;SDS011;3260;52.438;13.502;2022-07-04T07:49:20;5.40;;;0.90;;
3287;SDS011;3260;52.438;13.502;2022-07-04T07:51:48;5.40;;;0.90;;
3287;SDS011;3260;52.438;13.502;2022-07-04T07:54:16;5.60;;;1.20;;
3287;SDS011;3260;52.438;13.502;2022-07-04T07:57:06;5.30;;;0.90;;
3287;SDS011;3260;52.438;13.502;2022-07-04T07:59:34;5.27;;;0.90;;
3287;SDS011;3260;52.438;13.502;2022-07-04T08:02:02;5.30;;;0.90;;
3287;SDS011;3260;52.438;13.502;2022-07-04T08:04:31;5.30;;;0.90;;
3287;SDS011;3260;52.438;13.502;2022-07-04T08:07:02;5.30;;;0.90;;
3287;SDS011;3260;52.438;13.502;2022-07-04T08:09:48;5.30;;;0.90;;
3287;SDS011;3260;52.438;13.502;2022-07-04T08:12:17;5.27;;;0.90;;
3287;SDS011;3260;52.438;13.502;2022-07-04T08:14:46;5.30;;;0.90;;
3287;SDS011;3260;52.438;13.502;2022-07-04T08:17:14;5.50;;;1.00;;
3287;SDS011;3260;52.438;13.502;2022-07-04T08:19:42;5.27;;;0.90;;
3287;SDS011;3260;52.438;13.502;2022-07-04T08:22:11;5.20;;;0.80;;
3287;SDS011;3260;52.438;13.502;2022-07-04T08:24:41;5.20;;;0.90;;
3287;SDS011;3260;52.438;13.502;2022-07-04T08:27:10;5.27;;;0.80;;
3287;SDS011;3260;52.438;13.502;2022-07-04T08:29:41;5.47;;;0.93;;
3287;SDS011;3260;52.438;13.502;2022-07-04T08:32:10;5.27;;;0.90;;
3287;SDS011;3260;52.438;13.502;2022-07-04T08:34:38;5.33;;;0.90;;
3287;SDS011;3260;52.438;13.502;2022-07-04T08:37:08;5.30;;;0.90;;
3287;SDS011;3260;52.438;13.502;2022-07-04T08:39:37;5.60;;;1.23;;
3287;SDS011;3260;52.438;13.502;2022-07-04T08:42:05;5.20;;;0.87;;
3287;SDS011;3260;52.438;13.502;2022-07-04T08:44:45;5.17;;;0.80;;
3287;SDS011;3260;52.438;13.502;2022-07-04T08:47:17;5.23;;;0.80;;
3287;SDS011;3260;52.438;13.502;2022-07-04T08:49:50;5.27;;;0.90;;
3287;SDS011;3260;52.438;13.502;2022-07-04T08:52:28;5.30;;;0.90;;
3287;SDS011;3260;52.438;13.502;2022-07-04T08:55:03;5.40;;;1.00;;
3287;SDS011;3260;52.438;13.502;2022-07-04T08:57:51;5.30;;;0.90;;
3287;SDS011;3260;52.438;13.502;2022-07-04T09:00:39;5.60;;;0.90;;
3287;SDS011;3260;52.438;13.502;2022-07-04T09:03:07;5.50;;;0.90;;
3287;SDS011;3260;52.438;13.502;2022-07-04T09:05:37;6.20;;;1.13;;
3287;SDS011;3260;52.438;13.502;2022-07-04T09:08:05;5.47;;;0.93;;
3287;SDS011;3260;52.438;13.502;2022-07-04T09:10:33;5.67;;;1.10;;
3287;SDS011;3260;52.438;13.502;2022-07-04T09:13:03;5.40;;;0.90;;
3287;SDS011;3260;52.438;13.502;2022-07-04T09:15:39;5.40;;;0.90;;
3287;SDS011;3260;52.438;13.502;2022-07-04T09:18:18;5.40;;;0.90;;
3287;SDS011;3260;52.438;13.502;2022-07-04T09:20:51;5.30;;;0.90;;
3287;SDS011;3260;52.438;13.502;2022-07-04T09:23:22;5.30;;;0.90;;
3287;SDS011;3260;52.438;13.502;2022-07-04T09:26:05;5.30;;;0.90;;
3287;SDS011;3260;52.438;13.502;2022-07-04T09:28:42;8.73;;;1.43;;
3287;SDS011;3260;52.438;13.502;2022-07-04T09:31:14;5.40;;;0.90;;
3287;SDS011;3260;52.438;13.502;2022-07-04T09:33:48;5.37;;;0.90;;
3287;SDS011;3260;52.438;13.502;2022-07-04T09:36:23;5.30;;;0.90;;
3287;SDS011;3260;52.438;13.502;2022-07-04T09:39:06;5.60;;;1.10;;
3287;SDS011;3260;52.438;13.502;2022-07-04T09:41:50;5.33;;;0.90;;
3287;SDS011;3260;52.438;13.502;2022-07-04T09:44:24;5.30;;;0.90;;
3287;SDS011;3260;52.438;13.502;2022-07-04T09:46:56;5.70;;;1.17;;
3287;SDS011;3260;52.438;13.502;2022-07-04T09:49:24;5.90;;;1.10;;
3287;SDS011;3260;52.438;13.502;2022-07-04T09:51:52;11.33;;;1.90;;
3287;SDS011;3260;52.438;13.502;2022-07-04T09:54:22;5.30;;;0.90;;
3287;SDS011;3260;52.438;13.502;2022-07-04T09:56:54;5.33;;;0.90;;
3287;SDS011;3260;52.438;13.502;2022-07-04T09:59:24;5.23;;;0.90;;
3287;SDS011;3260;52.438;13.502;2022-07-04T10:02:06;5.27;;;0.90;;
3287;SDS011;3260;52.438;13.502;2022-07-04T10:04:42;5.30;;;0.90;;
3287;SDS011;3260;52.438;13.502;2022-07-04T10:07:17;5.37;;;1.00;;
3287;SDS011;3260;52.438;13.502;2022-07-04T10:09:59;11.17;;;1.50;;
3287;SDS011;3260;52.438;13.502;2022-07-04T10:12:27;5.30;;;0.90;;
3287;SDS011;3260;52.438;13.502;2022-07-04T10:14:56;5.30;;;0.90;;
3287;SDS011;3260;52.438;13.502;2022-07-04T10:17:26;5.60;;;1.20;;
3287;SDS011;3260;52.438;13.502;2022-07-04T10:19:54;5.90;;;1.13;;
3287;SDS011;3260;52.438;13.502;2022-07-04T10:22:23;5.27;;;0.90;;
3287;SDS011;3260;52.438;13.502;2022-07-04T10:24:52;5.30;;;0.90;;
3287;SDS011;3260;52.438;13.502;2022-07-04T10:27:20;5.30;;;0.90;;
3287;SDS011;3260;52.438;13.502;2022-07-04T10:29:49;5.17;;;0.80;;
3287;SDS011;3260;52.438;13.502;2022-07-04T10:32:17;5.30;;;1.00;;
3287;SDS011;3260;52.438;13.502;2022-07-04T10:34:48;5.30;;;0.90;;
3287;SDS011;3260;52.438;13.502;2022-07-04T10:37:16;5.23;;;0.90;;
3287;SDS011;3260;52.438;13.502;2022-07-04T10:39:45;5.20;;;0.90;;
3287;SDS011;3260;52.438;13.502;2022-07-04T10:42:21;5.27;;;0.90;;
3287;SDS011;3260;52.438;13.502;2022-07-04T10:44:51;5.40;;;0.90;;
3287;SDS011;3260;52.438;13.502;2022-07-04T10:47:23;5.80;;;1.00;;
3287;SDS011;3260;52.438;13.502;2022-07-04T10:49:56;5.13;;;0.90;;
3287;SDS011;3260;52.438;13.502;2022-07-04T10:52:24;5.17;;;0.83;;
3287;SDS011;3260;52.438;13.502;2022-07-04T10:54:52;5.20;;;0.90;;
3287;SDS011;3260;52.438;13.502;2022-07-04T10:57:22;5.20;;;0.90;;
3287;SDS011;3260;52.438;13.502;2022-07-04T11:00:02;5.23;;;0.87;;
3287;SDS011;3260;52.438;13.502;2022-07-04T11:02:35;5.50;;;1.17;;
3287;SDS011;3260;52.438;13.502;2022-07-04T11:05:07;5.30;;;0.90;;
3287;SDS011;3260;52.438;13.502;2022-07-04T11:10:29;6.13;;;1.13;;
3287;SDS011;3260;52.438;13.502;2022-07-04T11:13:15;5.13;;;0.90;;
3287;SDS011;3260;52.438;13.502;2022-07-04T11:15:57;5.80;;;1.60;;
3287;SDS011;3260;52.438;13.502;2022-07-04T11:18:38;5.30;;;1.00;;
3287;SDS011;3260;52.438;13.502;2022-07-04T11:21:19;5.30;;;0.90;;
3287;SDS011;3260;52.438;13.502;2022-07-04T11:23:51;8.60;;;1.63;;
3287;SDS011;3260;52.438;13.502;2022-07-04T11:26:20;5.10;;;0.90;;
3287;SDS011;3260;52.438;13.502;2022-07-04T11:28:51;5.03;;;0.90;;
3287;SDS011;3260;52.438;13.502;2022-07-04T11:31:19;5.17;;;1.00;;
3287;SDS011;3260;52.438;13.502;2022-07-04T11:33:47;5.00;;;0.80;;
3287;SDS011;3260;52.438;13.502;2022-07-04T11:36:23;4.90;;;0.90;;
3287;SDS011;3260;52.438;13.502;2022-07-04T11:38:53;5.40;;;1.03;;
3287;SDS011;3260;52.438;13.502;2022-07-04T11:41:25;5.10;;;1.00;;
3287;SDS011;3260;52.438;13.502;2022-07-04T11:44:13;4.77;;;0.90;;
3287;SDS011;3260;52.438;13.502;2022-07-04T11:47:05;4.67;;;0.80;;
3287;SDS011;3260;52.438;13.502;2022-07-04T11:49:40;5.17;;;1.00;;
3287;SDS011;3260;52.438;13.502;2022-07-04T11:52:13;4.60;;;0.90;;
3287;SDS011;3260;52.438;13.502;2022-07-04T11:55:01;4.67;;;0.80;;
3287;SDS011;3260;52.438;13.502;2022-07-04T11:57:33;5.40;;;1.10;;
3287;SDS011;3260;52.438;13.502;2022-07-04T12:00:03;4.97;;;0.90;;
3287;SDS011;3260;52.438;13.502;2022-07-04T12:02:42;10.37;;;1.23;;
3287;SDS011;3260;52.438;13.502;2022-07-04T12:05:12;5.07;;;0.90;;
3287;SDS011;3260;52.438;13.502;2022-07-04T12:07:44;4.83;;;0.80;;
3287;SDS011;3260;52.438;13.502;2022-07-04T12:10:34;4.87;;;0.97;;
3287;SDS011;3260;52.438;13.502;2022-07-04T12:13:03;4.90;;;0.90;;
3287;SDS011;3260;52.438;13.502;2022-07-04T12:15:36;4.80;;;0.80;;
3287;SDS011;3260;52.438;13.502;2022-07-04T12:18:14;5.93;;;1.10;;
3287;SDS011;3260;52.438;13.502;2022-07-04T12:20:43;5.00;;;0.90;;
3287;SDS011;3260;52.438;13.502;2022-07-04T12:23:13;4.83;;;0.80;;
3287;SDS011;3260;52.438;13.502;2022-07-04T12:25:44;4.63;;;0.80;;
3287;SDS011;3260;52.438;13.502;2022-07-04T12:28:16;5.50;;;0.93;;
3287;SDS011;3260;52.438;13.502;2022-07-04T12:30:49;4.70;;;0.80;;
3287;SDS011;3260;52.438;13.502;2022-07-04T12:33:20;4.60;;;0.80;;
3287;SDS011;3260;52.438;13.502;2022-07-04T12:35:51;4.63;;;0.90;;
3287;SDS011;3260;52.438;13.502;2022-07-04T12:38:29;4.37;;;0.70;;
3287;SDS011;3260;52.438;13.502;2022-07-04T12:41:03;4.10;;;0.70;;
3287;SDS011;3260;52.438;13.502;2022-07-04T12:43:44;4.00;;;0.80;;
3287;SDS011;3260;52.438;13.502;2022-07-04T12:46:25;4.00;;;0.80;;
3287;SDS011;3260;52.438;13.502;2022-07-04T12:48:58;4.27;;;0.90;;
3287;SDS011;3260;52.438;13.502;2022-07-04T12:51:29;4.20;;;0.70;;
3287;SDS011;3260;52.438;13.502;2022-07-04T12:54:06;4.17;;;0.80;;
3287;SDS011;3260;52.438;13.502;2022-07-04T12:56:38;4.20;;;0.80;;
3287;SDS011;3260;52.438;13.502;2022-07-04T12:59:10;4.00;;;0.70;;
3287;SDS011;3260;52.438;13.502;2022-07-04T13:01:40;3.90;;;0.70;;
3287;SDS011;3260;52.438;13.502;2022-07-04T13:04:10;3.90;;;0.70;;
3287;SDS011;3260;52.438;13.502;2022-07-04T13:06:39;3.70;;;0.70;;
3287;SDS011;3260;52.438;13.502;2022-07-04T13:09:10;3.50;;;0.70;;
3287;SDS011;3260;52.438;13.502;2022-07-04T13:11:38;3.60;;;0.90;;
3287;SDS011;3260;52.438;13.502;2022-07-04T13:14:24;3.35;;;0.70;;
3287;SDS011;3260;52.438;13.502;2022-07-04T13:16:52;3.35;;;0.70;;
3287;SDS011;3260;52.438;13.502;2022-07-04T13:19:20;3.40;;;0.73;;
3287;SDS011;3260;52.438;13.502;2022-07-04T13:21:48;4.25;;;0.90;;
3287;SDS011;3260;52.438;13.502;2022-07-04T13:24:19;3.20;;;0.70;;
3287;SDS011;3260;52.438;13.502;2022-07-04T13:26:47;3.30;;;0.70;;
3287;SDS011;3260;52.438;13.502;2022-07-04T13:29:15;3.20;;;0.70;;
3287;SDS011;3260;52.438;13.502;2022-07-04T13:31:43;3.40;;;0.70;;
3287;SDS011;3260;52.438;13.502;2022-07-04T13:34:12;3.55;;;0.80;;
3287;SDS011;3260;52.438;13.502;2022-07-04T13:36:40;3.87;;;0.83;;
3287;SDS011;3260;52.438;13.502;2022-07-04T13:39:08;3.80;;;0.80;;
3287;SDS011;3260;52.438;13.502;2022-07-04T13:41:58;3.80;;;0.80;;
3287;SDS011;3260;52.438;13.502;2022-07-04T13:44:27;3.60;;;0.70;;
3287;SDS011;3260;52.438;13.502;2022-07-04T13:46:56;3.63;;;0.70;;
3287;SDS011;3260;52.438;13.502;2022-07-04T13:49:24;4.00;;;0.80;;
3287;SDS011;3260;52.438;13.502;2022-07-04T13:51:53;4.00;;;0.70;;
3287;SDS011;3260;52.438;13.502;2022-07-04T13:54:21;3.70;;;0.70;;
3287;SDS011;3260;52.438;13.502;2022-07-04T13:56:49;3.58;;;0.75;;
3287;SDS011;3260;52.438;13.502;2022-07-04T13:59:18;3.50;;;0.70;;
3287;SDS011;3260;52.438;13.502;2022-07-04T14:01:46;3.53;;;0.70;;
3287;SDS011;3260;52.438;13.502;2022-07-04T14:04:15;4.10;;;1.00;;
3287;SDS011;3260;52.438;13.502;2022-07-04T14:06:43;4.37;;;0.80;;
3287;SDS011;3260;52.438;13.502;2022-07-04T14:09:11;4.50;;;0.80;;
3287;SDS011;3260;52.438;13.502;2022-07-04T14:11:39;4.20;;;0.80;;
3287;SDS011;3260;52.438;13.502;2022-07-04T14:14:07;4.00;;;0.70;;
3287;SDS011;3260;52.438;13.502;2022-07-04T14:16:37;3.90;;;0.70;;
3287;SDS011;3260;52.438;13.502;2022-07-04T14:19:05;3.58;;;0.80;;
3287;SDS011;3260;52.438;13.502;2022-07-04T14:21:36;3.50;;;0.70;;
3287;SDS011;3260;52.438;13.502;2022-07-04T14:24:05;3.40;;;0.70;;
3287;SDS011;3260;52.438;13.502;2022-07-04T14:26:33;3.67;;;0.80;;
3287;SDS011;3260;52.438;13.502;2022-07-04T14:29:02;3.20;;;0.70;;
3287;SDS011;3260;52.438;13.502;2022-07-04T14:31:30;3.30;;;0.70;;
3287;SDS011;3260;52.438;13.502;2022-07-04T14:34:00;3.33;;;0.70;;
3287;SDS011;3260;52.438;13.502;2022-07-04T14:36:29;3.22;;;0.70;;
3287;SDS011;3260;52.438;13.502;2022-07-04T14:38:57;3.20;;;0.70;;
3287;SDS011;3260;52.438;13.502;2022-07-04T14:41:27;3.58;;;0.80;;
3287;SDS011;3260;52.438;13.502;2022-07-04T14:43:55;3.40;;;0.70;;
3287;SDS011;3260;52.438;13.502;2022-07-04T14:46:24;3.40;;;0.80;;
3287;SDS011;3260;52.438;13.502;2022-07-04T14:48:52;3.20;;;0.70;;
3287;SDS011;3260;52.438;13.502;2022-07-04T14:51:22;3.20;;;0.70;;
3287;SDS011;3260;52.438;13.502;2022-07-04T14:53:51;3.20;;;0.70;;
3287;SDS011;3260;52.438;13.502;2022-07-04T14:56:19;3.50;;;0.70;;
3287;SDS011;3260;52.438;13.502;2022-07-04T14:58:48;4.00;;;0.80;;
3287;SDS011;3260;52.438;13.502;2022-07-04T15:01:16;4.00;;;0.70;;
3287;SDS011;3260;52.438;13.502;2022-07-04T15:03:46;4.17;;;0.80;;
3287;SDS011;3260;52.438;13.502;2022-07-04T15:06:14;3.97;;;0.70;;
3287;SDS011;3260;52.438;13.502;2022-07-04T15:08:43;3.70;;;0.70;;
3287;SDS011;3260;52.438;13.502;2022-07-04T15:11:11;3.50;;;0.70;;
3287;SDS011;3260;52.438;13.502;2022-07-04T15:13:45;3.30;;;0.70;;
3287;SDS011;3260;52.438;13.502;2022-07-04T15:16:13;3.20;;;0.70;;
3287;SDS011;3260;52.438;13.502;2022-07-04T15:18:50;3.30;;;0.70;;
3287;SDS011;3260;52.438;13.502;2022-07-04T15:21:18;3.50;;;0.80;;
3287;SDS011;3260;52.438;13.502;2022-07-04T15:24:05;3.50;;;0.70;;
3287;SDS011;3260;52.438;13.502;2022-07-04T15:26:42;3.28;;;0.70;;
3287;SDS011;3260;52.438;13.502;2022-07-04T15:29:12;3.50;;;0.80;;
3287;SDS011;3260;52.438;13.502;2022-07-04T15:31:41;3.20;;;0.70;;
3287;SDS011;3260;52.438;13.502;2022-07-04T15:34:12;3.33;;;0.70;;
3287;SDS011;3260;52.438;13.502;2022-07-04T15:36:40;4.45;;;0.80;;
3287;SDS011;3260;52.438;13.502;2022-07-04T15:39:11;3.28;;;0.70;;
3287;SDS011;3260;52.438;13.502;2022-07-04T15:41:41;3.30;;;0.70;;
3287;SDS011;3260;52.438;13.502;2022-07-04T15:44:11;3.80;;;1.10;;
3287;SDS011;3260;52.438;13.502;2022-07-04T15:46:39;3.38;;;0.70;;
3287;SDS011;3260;52.438;13.502;2022-07-04T15:49:21;3.70;;;0.80;;
3287;SDS011;3260;52.438;13.502;2022-07-04T15:51:49;3.73;;;0.80;;
3287;SDS011;3260;52.438;13.502;2022-07-04T15:54:19;3.80;;;0.80;;
3287;SDS011;3260;52.438;13.502;2022-07-04T15:56:47;3.63;;;0.80;;
3287;SDS011;3260;52.438;13.502;2022-07-04T15:59:15;3.53;;;0.70;;
3287;SDS011;3260;52.438;13.502;2022-07-04T16:01:43;3.70;;;0.70;;
3287;SDS011;3260;52.438;13.502;2022-07-04T16:04:12;3.50;;;0.70;;
3287;SDS011;3260;52.438;13.502;2022-07-04T16:06:40;3.50;;;0.70;;
3287;SDS011;3260;52.438;13.502;2022-07-04T16:09:08;3.40;;;0.80;;
3287;SDS011;3260;52.438;13.502;2022-07-04T16:11:39;3.40;;;0.80;;
3287;SDS011;3260;52.438;13.502;2022-07-04T16:14:07;3.30;;;0.70;;
3287;SDS011;3260;52.438;13.502;2022-07-04T16:16:35;3.30;;;0.70;;
3287;SDS011;3260;52.438;13.502;2022-07-04T16:19:04;3.30;;;0.70;;
3287;SDS011;3260;52.438;13.502;2022-07-04T16:21:37;3.22;;;0.70;;
3287;SDS011;3260;52.438;13.502;2022-07-04T16:24:06;3.20;;;0.70;;
3287;SDS011;3260;52.438;13.502;2022-07-04T16:26:35;3.20;;;0.70;;
3287;SDS011;3260;52.438;13.502;2022-07-04T16:29:05;3.20;;;0.70;;
3287;SDS011;3260;52.438;13.502;2022-07-04T16:31:33;3.22;;;0.70;;
3287;SDS011;3260;52.438;13.502;2022-07-04T16:34:01;3.33;;;0.75;;
3287;SDS011;3260;52.438;13.502;2022-07-04T16:36:29;3.65;;;0.90;;
3287;SDS011;3260;52.438;13.502;2022-07-04T16:38:58;3.83;;;0.70;;
3287;SDS011;3260;52.438;13.502;2022-07-04T16:41:26;4.03;;;0.70;;
3287;SDS011;3260;52.438;13.502;2022-07-04T16:43:54;4.13;;;0.70;;
3287;SDS011;3260;52.438;13.502;2022-07-04T16:46:24;5.17;;;1.00;;
3287;SDS011;3260;52.438;13.502;2022-07-04T16:48:52;5.73;;;1.07;;
3287;SDS011;3260;52.438;13.502;2022-07-04T16:51:21;4.30;;;0.70;;
3287;SDS011;3260;52.438;13.502;2022-07-04T16:53:49;4.40;;;0.90;;
3287;SDS011;3260;52.438;13.502;2022-07-04T16:56:17;4.17;;;0.80;;
3287;SDS011;3260;52.438;13.502;2022-07-04T16:58:45;4.10;;;0.70;;
3287;SDS011;3260;52.438;13.502;2022-07-04T17:01:13;4.03;;;0.80;;
3287;SDS011;3260;52.438;13.502;2022-07-04T17:03:43;4.00;;;0.70;;
3287;SDS011;3260;52.438;13.502;2022-07-04T17:06:11;3.83;;;0.70;;
3287;SDS011;3260;52.438;13.502;2022-07-04T17:08:39;3.90;;;0.80;;
3287;SDS011;3260;52.438;13.502;2022-07-04T17:11:08;3.83;;;0.73;;
3287;SDS011;3260;52.438;13.502;2022-07-04T17:13:37;3.70;;;0.70;;
3287;SDS011;3260;52.438;13.502;2022-07-04T17:16:11;3.70;;;0.70;;
3287;SDS011;3260;52.438;13.502;2022-07-04T17:18:40;3.60;;;0.70;;
3287;SDS011;3260;52.438;13.502;2022-07-04T17:21:09;3.60;;;0.70;;
3287;SDS011;3260;52.438;13.502;2022-07-04T17:23:37;3.80;;;0.70;;
3287;SDS011;3260;52.438;13.502;2022-07-04T17:26:06;3.90;;;0.70;;
3287;SDS011;3260;52.438;13.502;2022-07-04T17:28:34;4.20;;;0.80;;
3287;SDS011;3260;52.438;13.502;2022-07-04T17:31:02;4.50;;;0.80;;
3287;SDS011;3260;52.438;13.502;2022-07-04T17:33:30;4.70;;;0.80;;
3287;SDS011;3260;52.438;13.502;2022-07-04T17:35:58;4.93;;;0.80;;
3287;SDS011;3260;52.438;13.502;2022-07-04T17:38:27;5.00;;;0.80;;
3287;SDS011;3260;52.438;13.502;2022-07-04T17:40:55;5.00;;;0.80;;
3287;SDS011;3260;52.438;13.502;2022-07-04T17:43:47;4.90;;;0.80;;
3287;SDS011;3260;52.438;13.502;2022-07-04T17:46:15;4.80;;;0.80;;
3287;SDS011;3260;52.438;13.502;2022-07-04T17:48:43;4.67;;;0.80;;
3287;SDS011;3260;52.438;13.502;2022-07-04T17:51:11;4.60;;;0.80;;
3287;SDS011;3260;52.438;13.502;2022-07-04T17:53:40;4.43;;;0.70;;
3287;SDS011;3260;52.438;13.502;2022-07-04T17:56:08;4.30;;;0.70;;
3287;SDS011;3260;52.438;13.502;2022-07-04T17:58:37;4.30;;;0.70;;
3287;SDS011;3260;52.438;13.502;2022-07-04T18:01:05;4.40;;;0.87;;
3287;SDS011;3260;52.438;13.502;2022-07-04T18:03:38;4.37;;;0.70;;
3287;SDS011;3260;52.438;13.502;2022-07-04T18:06:07;4.20;;;0.70;;
3287;SDS011;3260;52.438;13.502;2022-07-04T18:08:35;4.43;;;0.70;;
3287;SDS011;3260;52.438;13.502;2022-07-04T18:11:05;4.43;;;0.73;;
3287;SDS011;3260;52.438;13.502;2022-07-04T18:13:34;4.40;;;0.80;;
3287;SDS011;3260;52.438;13.502;2022-07-04T18:16:02;4.63;;;0.80;;
3287;SDS011;3260;52.438;13.502;2022-07-04T18:18:31;4.70;;;0.80;;
3287;SDS011;3260;52.438;13.502;2022-07-04T18:21:00;4.90;;;0.80;;
3287;SDS011;3260;52.438;13.502;2022-07-04T18:23:28;5.00;;;0.80;;
3287;SDS011;3260;52.438;13.502;2022-07-04T18:25:57;5.10;;;0.80;;
3287;SDS011;3260;52.438;13.502;2022-07-04T18:28:26;5.20;;;0.83;;
3287;SDS011;3260;52.438;13.502;2022-07-04T18:31:01;5.20;;;0.80;;
3287;SDS011;3260;52.438;13.502;2022-07-04T18:33:30;5.33;;;0.90;;
3287;SDS011;3260;52.438;13.502;2022-07-04T18:35:59;5.60;;;1.20;;
3287;SDS011;3260;52.438;13.502;2022-07-04T18:38:28;5.47;;;0.90;;
3287;SDS011;3260;52.438;13.502;2022-07-04T18:40:57;5.43;;;0.90;;
3287;SDS011;3260;52.438;13.502;2022-07-04T18:43:45;5.43;;;0.90;;
3287;SDS011;3260;52.438;13.502;2022-07-04T18:46:13;5.50;;;0.90;;
3287;SDS011;3260;52.438;13.502;2022-07-04T18:48:42;5.50;;;0.90;;
3287;SDS011;3260;52.438;13.502;2022-07-04T18:51:10;5.50;;;0.83;;
3287;SDS011;3260;52.438;13.502;2022-07-04T18:53:41;5.60;;;0.90;;
3287;SDS011;3260;52.438;13.502;2022-07-04T18:56:10;5.50;;;0.90;;
3287;SDS011;3260;52.438;13.502;2022-07-04T18:58:38;5.60;;;0.90;;
3287;SDS011;3260;52.438;13.502;2022-07-04T19:01:09;5.67;;;0.90;;
3287;SDS011;3260;52.438;13.502;2022-07-04T19:03:39;5.67;;;0.90;;
3287;SDS011;3260;52.438;13.502;2022-07-04T19:06:07;5.60;;;0.90;;
3287;SDS011;3260;52.438;13.502;2022-07-04T19:08:35;5.60;;;0.90;;
3287;SDS011;3260;52.438;13.502;2022-07-04T19:11:04;5.67;;;0.90;;
3287;SDS011;3260;52.438;13.502;2022-07-04T19:13:32;5.67;;;0.90;;
3287;SDS011;3260;52.438;13.502;2022-07-04T19:16:00;5.63;;;0.90;;
3287;SDS011;3260;52.438;13.502;2022-07-04T19:18:31;5.60;;;0.90;;
3287;SDS011;3260;52.438;13.502;2022-07-04T19:20:59;5.60;;;0.90;;
3287;SDS011;3260;52.438;13.502;2022-07-04T19:23:27;5.60;;;1.00;;